Pagrindinis puslapis
METAR-TAF:

METAR-TAF

Oro uostai :

Marshall, Aliaska, Jungtinės Amerikos Valstijos

platuma: 61-51-51N, ilguma: 162-01-34W, Aukštis: 31 m

Dabartinis oras

Ataskaita buvo paskelbta 1 valandą ir 8 minutes, ne 21:41 UTC
Vėjas 6 kt iš Pietų
Temperatūra 8°C
Drėgmė 71%
Slėgis 1019 hPa
Matomumas: 16.1 km
Su prošvaistėmis ne aukštis 2400 ft
Apsiniaukę ne aukštis 3100 ft

METAR: PADM 052141Z AUTO 19006KT 10SM BKN024 OVC031 08/03 A3009 RMK AO2

Laikas: 14:49 (22:49 UTC)


TAF: trūkstamas

Orai ataskaitas ir orų prognozės (METAR, TAF).

turimą stotys yra geltonos ir raudonos taškus žemėlapyje.

Perkelti pele per norėdami pamatyti stoties vardą.

Tada spustelėkite, norėdami matyti oro stebėjimo ir prognozės.

Norėdami pakeisti žemėlapį: spustelėkite ant žalios mygtukų su juodo kryžiaus žemyn,; žalią mygtuką su brūkšneliu, jei norite nutolinti; arba žalių rodyklių gretimoms žemėlapius.


METAR-TAF: